Погода Жохувекна неделю

Мазовецкое воеводство, Польша

15 - 21 июля
  • 15июля
    Сегодня
    +18°
    +30°
    Ясно и безоблачно
    ВремяПогодаТемператураВлажностьДавлениеВетер, м/сВероятность осадков
    02:00Облачно с прояснениями+18°C82 %753 мм1.6 м/с2 %
    05:00Небольшая облачность+16°C94 %753 мм1.2 м/с5 %
    08:00Небольшая облачность+22°C82 %753 мм1.5 м/с26 %
    11:00Практически безоблачно+25°C64 %753 мм0.3 м/с15 %
    14:00Ясно и безоблачно+28°C54 %753 мм0.2 м/с7 %
    17:00Ясно и безоблачно+30°C48 %752 мм0.7 м/с2 %
    20:00Ясно и безоблачно+27°C71 %752 мм1.3 м/с2 %
    23:00Ясно и безоблачно+21°C77 %752 мм2.2 м/с2 %
  • 16июля
    Вторник
    +18°
    +34°
    Ясно и безоблачно
    ВремяПогодаТемператураВлажностьДавлениеВетер, м/сВероятность осадков
    02:00Практически безоблачно+20°C84 %752 мм2.5 м/с2 %
    05:00Ясно и безоблачно+18°C76 %752 мм2.5 м/с2 %
    08:00Ясно и безоблачно+24°C67 %752 мм2.6 м/с2 %
    11:00Ясно и безоблачно+29°C51 %751 мм4.6 м/с2 %
    14:00Ясно и безоблачно+32°C44 %750 мм4.5 м/с2 %
    17:00Облачно с прояснениями+25°C93 %749 мм3.3 м/с15 %
    20:00Облачно с прояснениями+26°C90 %750 мм2.3 м/с26 %
    23:00Облачно с прояснениями+22°C93 %750 мм3.8 м/с41 %
  • 17июля
    Среда
    +16°
    +29°
    Ясно и безоблачно
    ВремяПогодаТемператураВлажностьДавлениеВетер, м/сВероятность осадков
    02:00Практически безоблачно+20°C94 %752 мм3.2 м/с37 %
    05:00Небольшая облачность+19°C94 %752 мм3.6 м/с4 %
    08:00Ясно и безоблачно+22°C78 %754 мм3.4 м/с2 %
    11:00Ясно и безоблачно+26°C51 %755 мм4.4 м/с2 %
    14:00Ясно и безоблачно+27°C44 %755 мм5.3 м/с4 %
    17:00Ясно и безоблачно+27°C43 %755 мм5.2 м/с5 %
    20:00Ясно и безоблачно+24°C54 %755 мм3.1 м/с4 %
    23:00Практически безоблачно+20°C67 %756 мм2.9 м/с2 %
  • 18июля
    Четверг
    +14°
    +28°
    Практически безоблачно
    ВремяПогодаТемператураВлажностьДавлениеВетер, м/сВероятность осадков
    02:00Практически безоблачно+16°C82 %756 мм2.2 м/с2 %
    05:00Ясно и безоблачно+16°C85 %757 мм2.0 м/с2 %
    08:00Ясно и безоблачно+21°C65 %758 мм2.6 м/с2 %
    11:00Практически безоблачно+25°C45 %758 мм4.0 м/с2 %
    14:00Практически безоблачно+26°C40 %757 мм4.4 м/с8 %
    17:00Практически безоблачно+27°C40 %757 мм4.2 м/с3 %
    20:00Облачно с прояснениями+23°C58 %757 мм2.5 м/с2 %
    23:00Ясно и безоблачно+18°C75 %757 мм1.7 м/с2 %
  • 19июля
    Пятница
    +14°
    +28°
    Облачно с прояснениями
    ВремяПогодаТемператураВлажностьДавлениеВетер, м/сВероятность осадков
    02:00Ясно и безоблачно+16°C83 %757 мм2.3 м/с2 %
    05:00Облачно с прояснениями+15°C91 %757 мм1.4 м/с2 %
    08:00Облачно с прояснениями+20°C74 %757 мм0.7 м/с2 %
    11:00Облачно с прояснениями+24°C55 %757 мм2.2 м/с9 %
    14:00Облачно с прояснениями+25°C49 %756 мм3.3 м/с16 %
    17:00Облачно с прояснениями+26°C43 %756 мм4.5 м/с11 %
    20:00Облачно с прояснениями+23°C53 %755 мм1.4 м/с3 %
    23:00Облачно с прояснениями+18°C76 %755 мм0.4 м/с2 %
Мы используем cookies
Соглашаюсь